sensor_id;sensor_type;location;lat;lon;timestamp;P1;durP1;ratioP1;P2;durP2;ratioP2
6551;SDS011;3309;48.708;9.290;2022-12-18T00:00:30;0.80;;;0.80;;
6551;SDS011;3309;48.708;9.290;2022-12-18T00:02:56;0.80;;;0.80;;
6551;SDS011;3309;48.708;9.290;2022-12-18T00:05:22;0.80;;;0.80;;
6551;SDS011;3309;48.708;9.290;2022-12-18T00:07:48;1.10;;;1.10;;
6551;SDS011;3309;48.708;9.290;2022-12-18T00:10:14;0.90;;;0.90;;
6551;SDS011;3309;48.708;9.290;2022-12-18T00:12:43;0.90;;;0.90;;
6551;SDS011;3309;48.708;9.290;2022-12-18T00:15:09;0.90;;;0.90;;
6551;SDS011;3309;48.708;9.290;2022-12-18T00:17:35;1.00;;;1.00;;
6551;SDS011;3309;48.708;9.290;2022-12-18T00:20:01;0.90;;;0.90;;
6551;SDS011;3309;48.708;9.290;2022-12-18T00:22:27;0.80;;;0.80;;
6551;SDS011;3309;48.708;9.290;2022-12-18T00:24:54;0.90;;;0.90;;
6551;SDS011;3309;48.708;9.290;2022-12-18T00:27:20;0.90;;;0.90;;
6551;SDS011;3309;48.708;9.290;2022-12-18T00:29:46;0.80;;;0.80;;
6551;SDS011;3309;48.708;9.290;2022-12-18T00:32:13;1.00;;;1.00;;
6551;SDS011;3309;48.708;9.290;2022-12-18T00:34:39;1.00;;;1.00;;
6551;SDS011;3309;48.708;9.290;2022-12-18T00:37:05;0.80;;;0.80;;
6551;SDS011;3309;48.708;9.290;2022-12-18T00:39:31;0.97;;;0.97;;
6551;SDS011;3309;48.708;9.290;2022-12-18T00:41:57;0.90;;;0.90;;
6551;SDS011;3309;48.708;9.290;2022-12-18T00:44:41;0.90;;;0.90;;
6551;SDS011;3309;48.708;9.290;2022-12-18T00:47:07;1.00;;;1.00;;
6551;SDS011;3309;48.708;9.290;2022-12-18T00:49:33;0.80;;;0.80;;
6551;SDS011;3309;48.708;9.290;2022-12-18T00:51:59;0.80;;;0.80;;
6551;SDS011;3309;48.708;9.290;2022-12-18T00:54:25;0.80;;;0.80;;
6551;SDS011;3309;48.708;9.290;2022-12-18T00:56:51;0.83;;;0.83;;
6551;SDS011;3309;48.708;9.290;2022-12-18T00:59:18;0.90;;;0.90;;
6551;SDS011;3309;48.708;9.290;2022-12-18T01:01:44;0.80;;;0.80;;
6551;SDS011;3309;48.708;9.290;2022-12-18T01:04:10;0.90;;;0.90;;
6551;SDS011;3309;48.708;9.290;2022-12-18T01:06:36;0.83;;;0.83;;
6551;SDS011;3309;48.708;9.290;2022-12-18T01:09:02;0.80;;;0.80;;
6551;SDS011;3309;48.708;9.290;2022-12-18T01:11:28;0.90;;;0.90;;
6551;SDS011;3309;48.708;9.290;2022-12-18T01:13:54;0.80;;;0.80;;
6551;SDS011;3309;48.708;9.290;2022-12-18T01:16:20;0.90;;;0.90;;
6551;SDS011;3309;48.708;9.290;2022-12-18T01:18:47;0.90;;;0.90;;
6551;SDS011;3309;48.708;9.290;2022-12-18T01:21:14;0.90;;;0.90;;
6551;SDS011;3309;48.708;9.290;2022-12-18T01:23:46;0.90;;;0.90;;
6551;SDS011;3309;48.708;9.290;2022-12-18T01:26:13;0.80;;;0.80;;
6551;SDS011;3309;48.708;9.290;2022-12-18T01:28:39;0.80;;;0.80;;
6551;SDS011;3309;48.708;9.290;2022-12-18T01:31:25;0.80;;;0.80;;
6551;SDS011;3309;48.708;9.290;2022-12-18T01:33:51;0.80;;;0.80;;
6551;SDS011;3309;48.708;9.290;2022-12-18T01:36:28;0.80;;;0.80;;
6551;SDS011;3309;48.708;9.290;2022-12-18T01:38:54;0.83;;;0.83;;
6551;SDS011;3309;48.708;9.290;2022-12-18T01:41:24;0.80;;;0.80;;
6551;SDS011;3309;48.708;9.290;2022-12-18T01:43:55;0.90;;;0.90;;
6551;SDS011;3309;48.708;9.290;2022-12-18T01:46:25;0.80;;;0.80;;
6551;SDS011;3309;48.708;9.290;2022-12-18T01:48:58;0.80;;;0.80;;
6551;SDS011;3309;48.708;9.290;2022-12-18T01:51:25;0.80;;;0.80;;
6551;SDS011;3309;48.708;9.290;2022-12-18T01:53:52;0.90;;;0.90;;
6551;SDS011;3309;48.708;9.290;2022-12-18T01:56:18;0.80;;;0.80;;
6551;SDS011;3309;48.708;9.290;2022-12-18T02:01:11;0.83;;;0.83;;
6551;SDS011;3309;48.708;9.290;2022-12-18T02:03:37;0.80;;;0.80;;
6551;SDS011;3309;48.708;9.290;2022-12-18T02:06:10;0.87;;;0.87;;
6551;SDS011;3309;48.708;9.290;2022-12-18T02:11:09;0.90;;;0.90;;
6551;SDS011;3309;48.708;9.290;2022-12-18T02:16:24;0.90;;;0.90;;
6551;SDS011;3309;48.708;9.290;2022-12-18T02:18:53;0.80;;;0.80;;
6551;SDS011;3309;48.708;9.290;2022-12-18T02:23:51;0.80;;;0.80;;
6551;SDS011;3309;48.708;9.290;2022-12-18T02:26:27;0.80;;;0.80;;
6551;SDS011;3309;48.708;9.290;2022-12-18T02:29:00;0.70;;;0.70;;
6551;SDS011;3309;48.708;9.290;2022-12-18T02:31:28;0.90;;;0.90;;
6551;SDS011;3309;48.708;9.290;2022-12-18T02:33:58;0.90;;;0.90;;
6551;SDS011;3309;48.708;9.290;2022-12-18T02:36:26;0.90;;;0.90;;
6551;SDS011;3309;48.708;9.290;2022-12-18T02:38:53;0.90;;;0.90;;
6551;SDS011;3309;48.708;9.290;2022-12-18T02:41:20;0.80;;;0.80;;
6551;SDS011;3309;48.708;9.290;2022-12-18T02:43:53;0.70;;;0.70;;
6551;SDS011;3309;48.708;9.290;2022-12-18T02:46:30;0.90;;;0.90;;
6551;SDS011;3309;48.708;9.290;2022-12-18T02:49:40;0.90;;;0.90;;
6551;SDS011;3309;48.708;9.290;2022-12-18T02:57:03;0.90;;;0.90;;
6551;SDS011;3309;48.708;9.290;2022-12-18T02:59:40;0.90;;;0.90;;
6551;SDS011;3309;48.708;9.290;2022-12-18T03:04:54;0.90;;;0.90;;
6551;SDS011;3309;48.708;9.290;2022-12-18T03:07:42;0.90;;;0.90;;
6551;SDS011;3309;48.708;9.290;2022-12-18T03:10:29;0.90;;;0.90;;
6551;SDS011;3309;48.708;9.290;2022-12-18T03:13:00;0.80;;;0.80;;
6551;SDS011;3309;48.708;9.290;2022-12-18T03:15:30;0.90;;;0.90;;
6551;SDS011;3309;48.708;9.290;2022-12-18T03:18:04;0.97;;;0.97;;
6551;SDS011;3309;48.708;9.290;2022-12-18T03:20:37;1.00;;;1.00;;
6551;SDS011;3309;48.708;9.290;2022-12-18T03:23:09;1.00;;;1.00;;
6551;SDS011;3309;48.708;9.290;2022-12-18T03:25:42;0.80;;;0.80;;
6551;SDS011;3309;48.708;9.290;2022-12-18T03:28:12;0.90;;;0.90;;
6551;SDS011;3309;48.708;9.290;2022-12-18T03:30:40;0.83;;;0.83;;
6551;SDS011;3309;48.708;9.290;2022-12-18T03:33:09;0.90;;;0.90;;
6551;SDS011;3309;48.708;9.290;2022-12-18T03:35:39;0.80;;;0.80;;
6551;SDS011;3309;48.708;9.290;2022-12-18T03:38:07;0.90;;;0.90;;
6551;SDS011;3309;48.708;9.290;2022-12-18T03:40:56;0.80;;;0.80;;
6551;SDS011;3309;48.708;9.290;2022-12-18T03:46:14;0.93;;;0.93;;
6551;SDS011;3309;48.708;9.290;2022-12-18T03:48:53;0.80;;;0.80;;
6551;SDS011;3309;48.708;9.290;2022-12-18T03:51:48;0.90;;;0.90;;
6551;SDS011;3309;48.708;9.290;2022-12-18T03:54:24;0.90;;;0.90;;
6551;SDS011;3309;48.708;9.290;2022-12-18T03:56:57;0.90;;;0.90;;
6551;SDS011;3309;48.708;9.290;2022-12-18T03:59:28;0.83;;;0.83;;
6551;SDS011;3309;48.708;9.290;2022-12-18T04:01:55;0.90;;;0.90;;
6551;SDS011;3309;48.708;9.290;2022-12-18T04:04:23;0.90;;;0.90;;
6551;SDS011;3309;48.708;9.290;2022-12-18T04:06:51;0.90;;;0.90;;
6551;SDS011;3309;48.708;9.290;2022-12-18T04:09:17;1.00;;;1.00;;
6551;SDS011;3309;48.708;9.290;2022-12-18T04:11:44;0.90;;;0.90;;
6551;SDS011;3309;48.708;9.290;2022-12-18T04:14:11;0.90;;;0.90;;
6551;SDS011;3309;48.708;9.290;2022-12-18T04:16:36;0.90;;;0.90;;
6551;SDS011;3309;48.708;9.290;2022-12-18T04:19:02;1.00;;;1.00;;
6551;SDS011;3309;48.708;9.290;2022-12-18T04:21:28;0.90;;;0.90;;
6551;SDS011;3309;48.708;9.290;2022-12-18T04:23:54;0.80;;;0.80;;
6551;SDS011;3309;48.708;9.290;2022-12-18T04:26:20;1.00;;;1.00;;
6551;SDS011;3309;48.708;9.290;2022-12-18T04:28:45;1.00;;;1.00;;
6551;SDS011;3309;48.708;9.290;2022-12-18T04:31:11;0.90;;;0.90;;
6551;SDS011;3309;48.708;9.290;2022-12-18T04:33:37;1.00;;;1.00;;
6551;SDS011;3309;48.708;9.290;2022-12-18T04:36:02;1.00;;;1.00;;
6551;SDS011;3309;48.708;9.290;2022-12-18T04:38:29;0.90;;;0.90;;
6551;SDS011;3309;48.708;9.290;2022-12-18T04:40:54;0.90;;;0.90;;
6551;SDS011;3309;48.708;9.290;2022-12-18T04:43:20;0.93;;;0.93;;
6551;SDS011;3309;48.708;9.290;2022-12-18T04:45:45;0.90;;;0.90;;
6551;SDS011;3309;48.708;9.290;2022-12-18T04:48:11;0.90;;;0.90;;
6551;SDS011;3309;48.708;9.290;2022-12-18T04:50:36;0.90;;;0.90;;
6551;SDS011;3309;48.708;9.290;2022-12-18T04:53:02;1.00;;;1.00;;
6551;SDS011;3309;48.708;9.290;2022-12-18T04:55:28;0.90;;;0.90;;
6551;SDS011;3309;48.708;9.290;2022-12-18T04:57:53;1.00;;;1.00;;
6551;SDS011;3309;48.708;9.290;2022-12-18T05:00:19;0.90;;;0.90;;
6551;SDS011;3309;48.708;9.290;2022-12-18T05:02:45;0.90;;;0.90;;
6551;SDS011;3309;48.708;9.290;2022-12-18T05:05:10;0.93;;;0.93;;
6551;SDS011;3309;48.708;9.290;2022-12-18T05:07:36;0.90;;;0.90;;
6551;SDS011;3309;48.708;9.290;2022-12-18T05:10:02;0.90;;;0.90;;
6551;SDS011;3309;48.708;9.290;2022-12-18T05:12:30;0.87;;;0.87;;
6551;SDS011;3309;48.708;9.290;2022-12-18T05:14:56;0.90;;;0.90;;
6551;SDS011;3309;48.708;9.290;2022-12-18T05:17:21;0.90;;;0.90;;
6551;SDS011;3309;48.708;9.290;2022-12-18T05:19:47;0.90;;;0.90;;
6551;SDS011;3309;48.708;9.290;2022-12-18T05:22:12;1.00;;;1.00;;
6551;SDS011;3309;48.708;9.290;2022-12-18T05:24:38;1.00;;;1.00;;
6551;SDS011;3309;48.708;9.290;2022-12-18T05:27:03;0.90;;;0.90;;
6551;SDS011;3309;48.708;9.290;2022-12-18T05:29:29;0.90;;;0.90;;
6551;SDS011;3309;48.708;9.290;2022-12-18T05:31:54;0.90;;;0.90;;
6551;SDS011;3309;48.708;9.290;2022-12-18T05:34:20;0.90;;;0.90;;
6551;SDS011;3309;48.708;9.290;2022-12-18T05:36:46;0.90;;;0.90;;
6551;SDS011;3309;48.708;9.290;2022-12-18T05:39:11;1.00;;;1.00;;
6551;SDS011;3309;48.708;9.290;2022-12-18T05:41:37;1.00;;;1.00;;
6551;SDS011;3309;48.708;9.290;2022-12-18T05:44:03;0.90;;;0.90;;
6551;SDS011;3309;48.708;9.290;2022-12-18T05:46:28;1.00;;;1.00;;
6551;SDS011;3309;48.708;9.290;2022-12-18T05:48:54;0.90;;;0.90;;
6551;SDS011;3309;48.708;9.290;2022-12-18T05:51:21;0.90;;;0.90;;
6551;SDS011;3309;48.708;9.290;2022-12-18T05:53:47;1.00;;;1.00;;
6551;SDS011;3309;48.708;9.290;2022-12-18T05:56:17;1.00;;;1.00;;
6551;SDS011;3309;48.708;9.290;2022-12-18T05:58:44;0.90;;;0.90;;
6551;SDS011;3309;48.708;9.290;2022-12-18T06:01:20;0.90;;;0.90;;
6551;SDS011;3309;48.708;9.290;2022-12-18T06:03:48;1.00;;;1.00;;
6551;SDS011;3309;48.708;9.290;2022-12-18T06:06:18;0.90;;;0.90;;
6551;SDS011;3309;48.708;9.290;2022-12-18T06:08:45;1.00;;;1.00;;
6551;SDS011;3309;48.708;9.290;2022-12-18T06:11:12;1.00;;;1.00;;
6551;SDS011;3309;48.708;9.290;2022-12-18T06:13:38;1.10;;;1.10;;
6551;SDS011;3309;48.708;9.290;2022-12-18T06:16:04;1.00;;;1.00;;
6551;SDS011;3309;48.708;9.290;2022-12-18T06:18:30;0.90;;;0.90;;
6551;SDS011;3309;48.708;9.290;2022-12-18T06:20:56;0.90;;;0.90;;
6551;SDS011;3309;48.708;9.290;2022-12-18T06:23:23;1.10;;;1.10;;
6551;SDS011;3309;48.708;9.290;2022-12-18T06:25:48;1.00;;;1.00;;
6551;SDS011;3309;48.708;9.290;2022-12-18T06:28:14;1.00;;;1.00;;
6551;SDS011;3309;48.708;9.290;2022-12-18T06:30:43;1.00;;;1.00;;
6551;SDS011;3309;48.708;9.290;2022-12-18T06:33:08;1.00;;;1.00;;
6551;SDS011;3309;48.708;9.290;2022-12-18T06:35:34;1.00;;;1.00;;
6551;SDS011;3309;48.708;9.290;2022-12-18T06:38:01;1.00;;;1.00;;
6551;SDS011;3309;48.708;9.290;2022-12-18T06:40:27;0.90;;;0.90;;
6551;SDS011;3309;48.708;9.290;2022-12-18T06:42:52;1.00;;;1.00;;
6551;SDS011;3309;48.708;9.290;2022-12-18T06:45:18;1.00;;;1.00;;
6551;SDS011;3309;48.708;9.290;2022-12-18T06:47:43;1.00;;;1.00;;
6551;SDS011;3309;48.708;9.290;2022-12-18T06:50:09;1.00;;;1.00;;
6551;SDS011;3309;48.708;9.290;2022-12-18T06:52:35;1.10;;;1.10;;
6551;SDS011;3309;48.708;9.290;2022-12-18T06:55:01;1.00;;;1.00;;
6551;SDS011;3309;48.708;9.290;2022-12-18T06:57:27;1.00;;;1.00;;
6551;SDS011;3309;48.708;9.290;2022-12-18T06:59:53;1.00;;;1.00;;
6551;SDS011;3309;48.708;9.290;2022-12-18T07:02:19;1.00;;;1.00;;
6551;SDS011;3309;48.708;9.290;2022-12-18T07:04:44;0.90;;;0.90;;
6551;SDS011;3309;48.708;9.290;2022-12-18T07:07:10;1.10;;;1.10;;
6551;SDS011;3309;48.708;9.290;2022-12-18T07:09:36;1.00;;;1.00;;
6551;SDS011;3309;48.708;9.290;2022-12-18T07:12:01;0.97;;;0.97;;
6551;SDS011;3309;48.708;9.290;2022-12-18T07:14:27;1.00;;;1.00;;
6551;SDS011;3309;48.708;9.290;2022-12-18T07:16:52;1.10;;;1.10;;
6551;SDS011;3309;48.708;9.290;2022-12-18T07:19:18;1.07;;;1.07;;
6551;SDS011;3309;48.708;9.290;2022-12-18T07:21:43;1.00;;;1.00;;
6551;SDS011;3309;48.708;9.290;2022-12-18T07:24:09;1.00;;;1.00;;
6551;SDS011;3309;48.708;9.290;2022-12-18T07:26:34;1.00;;;1.00;;
6551;SDS011;3309;48.708;9.290;2022-12-18T07:29:00;1.00;;;1.00;;
6551;SDS011;3309;48.708;9.290;2022-12-18T07:31:26;1.00;;;1.00;;
6551;SDS011;3309;48.708;9.290;2022-12-18T07:33:51;1.00;;;1.00;;
6551;SDS011;3309;48.708;9.290;2022-12-18T07:36:17;0.90;;;0.90;;
6551;SDS011;3309;48.708;9.290;2022-12-18T07:38:46;0.93;;;0.93;;
6551;SDS011;3309;48.708;9.290;2022-12-18T07:41:12;0.90;;;0.90;;
6551;SDS011;3309;48.708;9.290;2022-12-18T07:43:39;0.97;;;0.97;;
6551;SDS011;3309;48.708;9.290;2022-12-18T07:46:06;0.93;;;0.93;;
6551;SDS011;3309;48.708;9.290;2022-12-18T07:48:32;0.90;;;0.90;;
6551;SDS011;3309;48.708;9.290;2022-12-18T07:50:58;0.90;;;0.90;;
6551;SDS011;3309;48.708;9.290;2022-12-18T07:53:29;0.80;;;0.80;;
6551;SDS011;3309;48.708;9.290;2022-12-18T07:56:01;0.80;;;0.80;;
6551;SDS011;3309;48.708;9.290;2022-12-18T07:58:31;0.90;;;0.90;;
6551;SDS011;3309;48.708;9.290;2022-12-18T08:01:04;0.90;;;0.90;;
6551;SDS011;3309;48.708;9.290;2022-12-18T08:03:34;1.00;;;1.00;;
6551;SDS011;3309;48.708;9.290;2022-12-18T08:06:00;0.90;;;0.90;;
6551;SDS011;3309;48.708;9.290;2022-12-18T08:08:27;1.00;;;1.00;;
6551;SDS011;3309;48.708;9.290;2022-12-18T08:10:53;0.90;;;0.90;;
6551;SDS011;3309;48.708;9.290;2022-12-18T08:13:19;0.90;;;0.90;;
6551;SDS011;3309;48.708;9.290;2022-12-18T08:15:44;0.93;;;0.93;;
6551;SDS011;3309;48.708;9.290;2022-12-18T08:18:10;0.80;;;0.80;;
6551;SDS011;3309;48.708;9.290;2022-12-18T08:20:35;0.80;;;0.80;;
6551;SDS011;3309;48.708;9.290;2022-12-18T08:23:01;0.80;;;0.80;;
6551;SDS011;3309;48.708;9.290;2022-12-18T08:25:26;0.90;;;0.90;;
6551;SDS011;3309;48.708;9.290;2022-12-18T08:27:52;0.90;;;0.90;;
6551;SDS011;3309;48.708;9.290;2022-12-18T08:30:17;0.70;;;0.70;;
6551;SDS011;3309;48.708;9.290;2022-12-18T08:32:43;0.70;;;0.70;;
6551;SDS011;3309;48.708;9.290;2022-12-18T08:35:09;0.80;;;0.80;;
6551;SDS011;3309;48.708;9.290;2022-12-18T08:37:36;0.80;;;0.80;;
6551;SDS011;3309;48.708;9.290;2022-12-18T08:40:02;0.80;;;0.80;;
6551;SDS011;3309;48.708;9.290;2022-12-18T08:42:28;0.90;;;0.90;;
6551;SDS011;3309;48.708;9.290;2022-12-18T08:45:12;0.80;;;0.80;;
6551;SDS011;3309;48.708;9.290;2022-12-18T08:47:38;0.80;;;0.80;;
6551;SDS011;3309;48.708;9.290;2022-12-18T08:50:03;0.80;;;0.80;;
6551;SDS011;3309;48.708;9.290;2022-12-18T08:52:31;0.90;;;0.90;;
6551;SDS011;3309;48.708;9.290;2022-12-18T08:54:57;0.90;;;0.90;;
6551;SDS011;3309;48.708;9.290;2022-12-18T08:57:22;0.80;;;0.80;;
6551;SDS011;3309;48.708;9.290;2022-12-18T08:59:48;0.90;;;0.90;;
6551;SDS011;3309;48.708;9.290;2022-12-18T09:02:13;0.73;;;0.73;;
6551;SDS011;3309;48.708;9.290;2022-12-18T09:04:39;0.70;;;0.70;;
6551;SDS011;3309;48.708;9.290;2022-12-18T09:07:05;0.70;;;0.70;;
6551;SDS011;3309;48.708;9.290;2022-12-18T09:09:30;0.70;;;0.70;;
6551;SDS011;3309;48.708;9.290;2022-12-18T09:11:56;0.60;;;0.60;;
6551;SDS011;3309;48.708;9.290;2022-12-18T09:14:21;0.70;;;0.70;;
6551;SDS011;3309;48.708;9.290;2022-12-18T09:16:47;0.70;;;0.70;;
6551;SDS011;3309;48.708;9.290;2022-12-18T09:19:12;0.70;;;0.70;;
6551;SDS011;3309;48.708;9.290;2022-12-18T09:21:38;0.70;;;0.70;;
6551;SDS011;3309;48.708;9.290;2022-12-18T09:24:04;0.70;;;0.70;;
6551;SDS011;3309;48.708;9.290;2022-12-18T09:26:30;0.70;;;0.70;;
6551;SDS011;3309;48.708;9.290;2022-12-18T09:28:56;0.60;;;0.60;;
6551;SDS011;3309;48.708;9.290;2022-12-18T09:31:22;0.70;;;0.70;;
6551;SDS011;3309;48.708;9.290;2022-12-18T09:33:49;0.63;;;0.63;;
6551;SDS011;3309;48.708;9.290;2022-12-18T09:36:15;0.80;;;0.80;;
6551;SDS011;3309;48.708;9.290;2022-12-18T09:38:42;0.60;;;0.60;;
6551;SDS011;3309;48.708;9.290;2022-12-18T09:41:23;0.60;;;0.60;;
6551;SDS011;3309;48.708;9.290;2022-12-18T09:43:59;0.60;;;0.60;;
6551;SDS011;3309;48.708;9.290;2022-12-18T09:46:29;0.60;;;0.60;;
6551;SDS011;3309;48.708;9.290;2022-12-18T09:48:59;0.60;;;0.60;;
6551;SDS011;3309;48.708;9.290;2022-12-18T09:51:35;0.57;;;0.57;;
6551;SDS011;3309;48.708;9.290;2022-12-18T09:54:07;0.50;;;0.50;;
6551;SDS011;3309;48.708;9.290;2022-12-18T09:56:45;0.40;;;0.40;;
6551;SDS011;3309;48.708;9.290;2022-12-18T09:59:20;0.70;;;0.70;;
6551;SDS011;3309;48.708;9.290;2022-12-18T10:01:46;0.40;;;0.40;;
6551;SDS011;3309;48.708;9.290;2022-12-18T10:04:12;0.47;;;0.47;;
6551;SDS011;3309;48.708;9.290;2022-12-18T10:06:40;0.60;;;0.60;;
6551;SDS011;3309;48.708;9.290;2022-12-18T10:09:11;0.60;;;0.60;;
6551;SDS011;3309;48.708;9.290;2022-12-18T10:14:41;0.53;;;0.53;;
6551;SDS011;3309;48.708;9.290;2022-12-18T10:19:45;0.50;;;0.50;;
6551;SDS011;3309;48.708;9.290;2022-12-18T10:27:46;0.63;;;0.63;;
6551;SDS011;3309;48.708;9.290;2022-12-18T10:30:12;0.50;;;0.50;;
6551;SDS011;3309;48.708;9.290;2022-12-18T10:32:40;0.70;;;0.70;;
6551;SDS011;3309;48.708;9.290;2022-12-18T10:35:18;0.50;;;0.50;;
6551;SDS011;3309;48.708;9.290;2022-12-18T10:43:24;0.60;;;0.60;;
6551;SDS011;3309;48.708;9.290;2022-12-18T10:46:05;0.60;;;0.60;;
6551;SDS011;3309;48.708;9.290;2022-12-18T10:48:48;0.70;;;0.70;;
6551;SDS011;3309;48.708;9.290;2022-12-18T10:53:51;0.60;;;0.60;;
6551;SDS011;3309;48.708;9.290;2022-12-18T10:56:41;0.70;;;0.70;;
6551;SDS011;3309;48.708;9.290;2022-12-18T10:59:08;0.63;;;0.63;;
6551;SDS011;3309;48.708;9.290;2022-12-18T11:01:52;0.80;;;0.80;;
6551;SDS011;3309;48.708;9.290;2022-12-18T11:04:23;0.60;;;0.60;;
6551;SDS011;3309;48.708;9.290;2022-12-18T11:06:55;0.70;;;0.70;;
6551;SDS011;3309;48.708;9.290;2022-12-18T11:09:34;0.70;;;0.70;;
6551;SDS011;3309;48.708;9.290;2022-12-18T11:17:45;0.80;;;0.80;;
6551;SDS011;3309;48.708;9.290;2022-12-18T11:20:05;0.77;;;0.77;;
6551;SDS011;3309;48.708;9.290;2022-12-18T11:22:44;0.70;;;0.70;;
6551;SDS011;3309;48.708;9.290;2022-12-18T11:25:27;0.80;;;0.80;;
6551;SDS011;3309;48.708;9.290;2022-12-18T11:32:55;0.90;;;0.90;;
6551;SDS011;3309;48.708;9.290;2022-12-18T11:35:32;0.80;;;0.80;;
6551;SDS011;3309;48.708;9.290;2022-12-18T11:38:01;0.83;;;0.83;;
6551;SDS011;3309;48.708;9.290;2022-12-18T11:40:37;0.90;;;0.90;;
6551;SDS011;3309;48.708;9.290;2022-12-18T11:43:09;0.80;;;0.80;;
6551;SDS011;3309;48.708;9.290;2022-12-18T11:45:40;0.90;;;0.90;;
6551;SDS011;3309;48.708;9.290;2022-12-18T11:50:51;0.80;;;0.80;;
6551;SDS011;3309;48.708;9.290;2022-12-18T11:53:19;0.90;;;0.90;;
6551;SDS011;3309;48.708;9.290;2022-12-18T12:07:09;0.70;;;0.70;;
6551;SDS011;3309;48.708;9.290;2022-12-18T12:09:58;0.80;;;0.80;;
6551;SDS011;3309;48.708;9.290;2022-12-18T12:15:34;0.60;;;0.60;;
6551;SDS011;3309;48.708;9.290;2022-12-18T12:18:25;0.70;;;0.70;;
6551;SDS011;3309;48.708;9.290;2022-12-18T12:21:14;0.80;;;0.80;;
6551;SDS011;3309;48.708;9.290;2022-12-18T12:24:02;0.73;;;0.73;;
6551;SDS011;3309;48.708;9.290;2022-12-18T12:29:36;0.70;;;0.70;;
6551;SDS011;3309;48.708;9.290;2022-12-18T12:32:35;0.80;;;0.80;;
6551;SDS011;3309;48.708;9.290;2022-12-18T12:38:05;0.80;;;0.80;;
6551;SDS011;3309;48.708;9.290;2022-12-18T12:40:39;0.90;;;0.90;;
6551;SDS011;3309;48.708;9.290;2022-12-18T12:43:15;0.70;;;0.70;;
6551;SDS011;3309;48.708;9.290;2022-12-18T12:51:14;0.70;;;0.70;;
6551;SDS011;3309;48.708;9.290;2022-12-18T12:53:55;0.70;;;0.70;;
6551;SDS011;3309;48.708;9.290;2022-12-18T12:56:24;0.73;;;0.73;;
6551;SDS011;3309;48.708;9.290;2022-12-18T12:58:57;0.80;;;0.80;;
6551;SDS011;3309;48.708;9.290;2022-12-18T13:01:49;0.70;;;0.70;;
6551;SDS011;3309;48.708;9.290;2022-12-18T13:04:36;0.80;;;0.80;;
6551;SDS011;3309;48.708;9.290;2022-12-18T13:07:10;0.80;;;0.80;;
6551;SDS011;3309;48.708;9.290;2022-12-18T13:25:50;0.80;;;0.80;;
6551;SDS011;3309;48.708;9.290;2022-12-18T13:28:18;0.90;;;0.90;;
6551;SDS011;3309;48.708;9.290;2022-12-18T13:30:47;0.90;;;0.90;;
6551;SDS011;3309;48.708;9.290;2022-12-18T13:35:41;0.80;;;0.80;;
6551;SDS011;3309;48.708;9.290;2022-12-18T13:38:20;0.90;;;0.90;;
6551;SDS011;3309;48.708;9.290;2022-12-18T13:45:45;1.00;;;1.00;;
6551;SDS011;3309;48.708;9.290;2022-12-18T13:48:20;0.90;;;0.90;;
6551;SDS011;3309;48.708;9.290;2022-12-18T13:50:49;0.83;;;0.83;;
6551;SDS011;3309;48.708;9.290;2022-12-18T13:53:30;0.80;;;0.80;;
6551;SDS011;3309;48.708;9.290;2022-12-18T13:55:57;0.80;;;0.80;;
6551;SDS011;3309;48.708;9.290;2022-12-18T13:58:24;0.90;;;0.90;;
6551;SDS011;3309;48.708;9.290;2022-12-18T14:00:50;1.00;;;1.00;;
6551;SDS011;3309;48.708;9.290;2022-12-18T14:03:18;0.90;;;0.90;;
6551;SDS011;3309;48.708;9.290;2022-12-18T14:05:44;0.97;;;0.97;;
6551;SDS011;3309;48.708;9.290;2022-12-18T14:08:12;0.90;;;0.90;;
6551;SDS011;3309;48.708;9.290;2022-12-18T14:10:39;0.90;;;0.90;;
6551;SDS011;3309;48.708;9.290;2022-12-18T14:13:06;0.90;;;0.90;;
6551;SDS011;3309;48.708;9.290;2022-12-18T14:15:34;0.90;;;0.90;;
6551;SDS011;3309;48.708;9.290;2022-12-18T14:18:02;0.90;;;0.90;;
6551;SDS011;3309;48.708;9.290;2022-12-18T14:20:32;1.00;;;1.00;;
6551;SDS011;3309;48.708;9.290;2022-12-18T14:22:58;0.90;;;0.90;;
6551;SDS011;3309;48.708;9.290;2022-12-18T14:25:26;0.90;;;0.90;;
6551;SDS011;3309;48.708;9.290;2022-12-18T14:30:37;0.87;;;0.87;;
6551;SDS011;3309;48.708;9.290;2022-12-18T14:33:13;0.90;;;0.90;;
6551;SDS011;3309;48.708;9.290;2022-12-18T14:35:51;0.80;;;0.80;;
6551;SDS011;3309;48.708;9.290;2022-12-18T14:38:31;1.00;;;1.00;;
6551;SDS011;3309;48.708;9.290;2022-12-18T14:41:10;0.90;;;0.90;;
6551;SDS011;3309;48.708;9.290;2022-12-18T14:43:37;0.90;;;0.90;;
6551;SDS011;3309;48.708;9.290;2022-12-18T14:46:49;0.90;;;0.90;;
6551;SDS011;3309;48.708;9.290;2022-12-18T14:48:50;0.80;;;0.80;;
6551;SDS011;3309;48.708;9.290;2022-12-18T14:51:17;0.90;;;0.90;;
6551;SDS011;3309;48.708;9.290;2022-12-18T14:53:45;0.90;;;0.90;;
6551;SDS011;3309;48.708;9.290;2022-12-18T14:56:22;0.93;;;0.93;;
6551;SDS011;3309;48.708;9.290;2022-12-18T14:58:49;0.90;;;0.90;;
6551;SDS011;3309;48.708;9.290;2022-12-18T15:01:23;0.90;;;0.90;;
6551;SDS011;3309;48.708;9.290;2022-12-18T15:03:50;0.90;;;0.90;;
6551;SDS011;3309;48.708;9.290;2022-12-18T15:06:17;0.80;;;0.80;;
6551;SDS011;3309;48.708;9.290;2022-12-18T15:08:43;1.10;;;1.10;;
6551;SDS011;3309;48.708;9.290;2022-12-18T15:11:27;1.00;;;1.00;;
6551;SDS011;3309;48.708;9.290;2022-12-18T15:13:54;0.90;;;0.90;;
6551;SDS011;3309;48.708;9.290;2022-12-18T15:16:20;1.00;;;1.00;;
6551;SDS011;3309;48.708;9.290;2022-12-18T15:18:46;0.90;;;0.90;;
6551;SDS011;3309;48.708;9.290;2022-12-18T15:21:16;0.90;;;0.90;;
6551;SDS011;3309;48.708;9.290;2022-12-18T15:26:09;0.90;;;0.90;;
6551;SDS011;3309;48.708;9.290;2022-12-18T15:28:43;1.00;;;1.00;;
6551;SDS011;3309;48.708;9.290;2022-12-18T15:33:42;0.90;;;0.90;;
6551;SDS011;3309;48.708;9.290;2022-12-18T15:36:14;1.00;;;1.00;;
6551;SDS011;3309;48.708;9.290;2022-12-18T15:38:41;1.00;;;1.00;;
6551;SDS011;3309;48.708;9.290;2022-12-18T15:41:17;0.93;;;0.93;;
6551;SDS011;3309;48.708;9.290;2022-12-18T15:43:45;1.00;;;1.00;;
6551;SDS011;3309;48.708;9.290;2022-12-18T15:48:44;0.90;;;0.90;;
6551;SDS011;3309;48.708;9.290;2022-12-18T15:51:15;0.90;;;0.90;;
6551;SDS011;3309;48.708;9.290;2022-12-18T15:53:42;0.90;;;0.90;;
6551;SDS011;3309;48.708;9.290;2022-12-18T15:56:10;1.00;;;1.00;;
6551;SDS011;3309;48.708;9.290;2022-12-18T15:58:54;0.90;;;0.90;;
6551;SDS011;3309;48.708;9.290;2022-12-18T16:01:21;0.90;;;0.90;;
6551;SDS011;3309;48.708;9.290;2022-12-18T16:03:48;1.00;;;1.00;;
6551;SDS011;3309;48.708;9.290;2022-12-18T16:06:14;1.00;;;1.00;;
6551;SDS011;3309;48.708;9.290;2022-12-18T16:08:40;1.00;;;1.00;;
6551;SDS011;3309;48.708;9.290;2022-12-18T16:11:08;1.00;;;1.00;;
6551;SDS011;3309;48.708;9.290;2022-12-18T16:13:40;1.00;;;1.00;;
6551;SDS011;3309;48.708;9.290;2022-12-18T16:16:07;0.90;;;0.90;;
6551;SDS011;3309;48.708;9.290;2022-12-18T16:18:33;1.00;;;1.00;;
6551;SDS011;3309;48.708;9.290;2022-12-18T16:20:59;1.00;;;1.00;;
6551;SDS011;3309;48.708;9.290;2022-12-18T16:23:25;1.00;;;1.00;;
6551;SDS011;3309;48.708;9.290;2022-12-18T16:25:52;0.97;;;0.97;;
6551;SDS011;3309;48.708;9.290;2022-12-18T16:28:18;0.90;;;0.90;;
6551;SDS011;3309;48.708;9.290;2022-12-18T16:30:44;1.00;;;1.00;;
6551;SDS011;3309;48.708;9.290;2022-12-18T16:33:10;1.00;;;1.00;;
6551;SDS011;3309;48.708;9.290;2022-12-18T16:35:36;0.80;;;0.80;;
6551;SDS011;3309;48.708;9.290;2022-12-18T16:38:02;1.00;;;1.00;;
6551;SDS011;3309;48.708;9.290;2022-12-18T16:40:28;1.00;;;1.00;;
6551;SDS011;3309;48.708;9.290;2022-12-18T16:42:57;0.90;;;0.90;;
6551;SDS011;3309;48.708;9.290;2022-12-18T16:45:23;1.00;;;1.00;;
6551;SDS011;3309;48.708;9.290;2022-12-18T16:47:49;1.00;;;1.00;;
6551;SDS011;3309;48.708;9.290;2022-12-18T16:50:15;0.90;;;0.90;;
6551;SDS011;3309;48.708;9.290;2022-12-18T16:52:41;0.90;;;0.90;;
6551;SDS011;3309;48.708;9.290;2022-12-18T16:55:07;0.97;;;0.97;;
6551;SDS011;3309;48.708;9.290;2022-12-18T16:57:33;1.00;;;1.00;;
6551;SDS011;3309;48.708;9.290;2022-12-18T17:00:00;0.90;;;0.90;;
6551;SDS011;3309;48.708;9.290;2022-12-18T17:02:26;0.80;;;0.80;;
6551;SDS011;3309;48.708;9.290;2022-12-18T17:04:52;0.90;;;0.90;;
6551;SDS011;3309;48.708;9.290;2022-12-18T17:07:19;1.00;;;1.00;;
6551;SDS011;3309;48.708;9.290;2022-12-18T17:09:45;1.00;;;1.00;;
6551;SDS011;3309;48.708;9.290;2022-12-18T17:12:10;1.00;;;1.00;;
6551;SDS011;3309;48.708;9.290;2022-12-18T17:14:37;0.90;;;0.90;;
6551;SDS011;3309;48.708;9.290;2022-12-18T17:17:03;0.97;;;0.97;;
6551;SDS011;3309;48.708;9.290;2022-12-18T17:19:29;1.00;;;1.00;;